Terminal Aerodrome Forecast
Issued by NWS Louisville, KY

Home | Current Version | Previous Version | Text Only | Print | Product List | Glossary On
Versions: 1 2 3 4 5 6 7 8 9 10 11 12 13 14 15 16
280
FTUS43 KLMK 230520
TAFLEX
TAF
KLEX 230520Z 2306/2406 VRB04KT P6SM SCT250
     FM230900 VRB03KT 4SM BR SCT250
     FM231300 VRB04KT P6SM BKN060=

USA.gov is the U.S. government's official web portal to all federal, state and local government web resources and services.